Dades meteomassalio
Diari Summary for Agost 31, 2017 Units:  Metric    English   Both
« Previous Day
Next Day »
Diari Semanal Mensual Anual Personalitzat
  Maxima: Minima: Mijana:
Temperatura: -17.8 °C -9.1 °C -6.8 °C
Rosada: -17.8 °C -12.9 °C -9.8 °C
Humitat: Humidity % 49 % 73 %
Velocitat del vent: 0 km/h 0 km/h 15.1 km/h
Racha vent: 0 km/h - -
Vent:- - SW
Pressio: 0 hPa 34405.1 hPa -
Pluja: 7.62 mm    
Historical Graphs
 
 
Tabular Data for Agost 31, 2017
Time Temperature Dew Point Pressure Wind Wind Speed Wind Gust Humidity Rainfall Rate (Hourly) solar Conditions
-17.8 °C -17.8 °C 0 hPa Calm     Humidity % 0 mm SolarRadiationWatts/m^2 W/m2 Conditions
00:00 -8.2 °C -9.1 °C 34405.1 hPa Calm     91 % 0 mm 0.0 W/m2 CLR
00:05 -8.2 °C -9.1 °C 34405.1 hPa Calm     91 % 0 mm 0.0 W/m2 CLR
00:10 -7.9 °C -8.7 °C 34405.1 hPa Calm     91 % 0 mm 0.0 W/m2 CLR
00:15 -7.9 °C -8.7 °C 34405.1 hPa Calm     91 % 0 mm 0.0 W/m2 CLR
00:20 -7.9 °C -8.7 °C 34405.1 hPa Calm     91 % 0 mm 0.0 W/m2 CLR
00:25 -7.9 °C -8.7 °C 34405.1 hPa Calm     91 % 0 mm 0.0 W/m2 CLR
00:30 -7.9 °C -8.7 °C 34405.1 hPa Calm     91 % 0 mm 0.0 W/m2 CLR
00:35 -7.9 °C -8.7 °C 34405.1 hPa Calm     91 % 0 mm 0.0 W/m2 CLR
00:40 -7.9 °C -8.7 °C 34405.1 hPa Calm     91 % 0 mm 0.0 W/m2 CLR
00:45 -7.9 °C -8.7 °C 34405.1 hPa Calm     91 % 0 mm 0.0 W/m2 CLR
00:50 -7.9 °C -8.7 °C 34405.1 hPa Calm     92 % 0 mm 0.0 W/m2 CLR
00:55 -7.9 °C -8.7 °C 34405.1 hPa Calm     92 % 0 mm 0.0 W/m2 CLR
01:00 -7.9 °C -8.7 °C 34418.7 hPa Calm     91 % 0 mm 0.0 W/m2 CLR
01:05 -7.9 °C -8.7 °C 34418.7 hPa Calm     92 % 0 mm 0.0 W/m2 CLR
01:10 -7.9 °C -8.7 °C 34428.8 hPa Calm     92 % 0 mm 0.0 W/m2 CLR
01:15 -7.9 °C -8.7 °C 34428.8 hPa Calm     92 % 0 mm 0.0 W/m2 CLR
01:20 -7.9 °C -8.7 °C 34418.7 hPa Calm     92 % 0 mm 0.0 W/m2 CLR
01:25 -7.9 °C -8.7 °C 34418.7 hPa Calm     92 % 0 mm 0.0 W/m2 CLR
01:30 -7.9 °C -8.7 °C 34428.8 hPa Calm     92 % 0 mm 0.0 W/m2 CLR
01:35 -7.6 °C -8.3 °C 34418.7 hPa Calm     92 % 0 mm 0.0 W/m2 CLR
01:40 -7.9 °C -8.7 °C 34428.8 hPa Calm     92 % 0 mm 0.0 W/m2 CLR
01:45 -7.9 °C -8.7 °C 34428.8 hPa Calm     92 % 0 mm 0.0 W/m2 CLR
01:50 -7.9 °C -8.7 °C 34428.8 hPa Calm     92 % 0 mm 0.0 W/m2 CLR
01:55 -7.9 °C -8.7 °C 34428.8 hPa Calm     92 % 0 mm 0.0 W/m2 CLR
02:00 -7.9 °C -8.7 °C 34428.8 hPa Calm     92 % 0 mm 0.0 W/m2 CLR
02:05 -7.9 °C -8.7 °C 34428.8 hPa Calm     92 % 0 mm 0.0 W/m2 CLR
02:10 -7.9 °C -8.7 °C 34442.4 hPa Calm     92 % 0 mm 0.0 W/m2 CLR
02:15 -7.9 °C -8.7 °C 34428.8 hPa Calm     92 % 0 mm 0.0 W/m2 CLR
02:20 -7.9 °C -8.7 °C 34428.8 hPa Calm     92 % 0 mm 0.0 W/m2 CLR
02:25 -7.6 °C -8.3 °C 34428.8 hPa Calm     92 % 0 mm 0.0 W/m2 CLR
02:30 -7.6 °C -8.3 °C 34442.4 hPa Calm     92 % 0 mm 0.0 W/m2 CLR
02:35 -7.9 °C -8.7 °C 34442.4 hPa Calm     92 % 0 mm 0.0 W/m2 CLR
02:40 -7.9 °C -8.7 °C 34442.4 hPa Calm     92 % 0 mm 0.0 W/m2 CLR
02:45 -7.9 °C -8.6 °C 34452.6 hPa Calm     93 % 0 mm 0.0 W/m2 CLR
02:50 -7.9 °C -8.6 °C 34452.6 hPa Calm     93 % 0 mm 0.0 W/m2 CLR
02:55 -7.9 °C -8.6 °C 34452.6 hPa Calm     93 % 0 mm 0.0 W/m2 CLR
03:00 -7.6 °C -8.2 °C 34452.6 hPa SW 9 km/h 9 km/h 93 % 0 mm 0.0 W/m2 CLR
03:05 -7.6 °C -8.3 °C 34452.6 hPa SW 9 km/h 9 km/h 92 % 0 mm 0.0 W/m2 CLR
03:10 -7.6 °C -8.3 °C 34462.7 hPa SW 15 km/h 15 km/h 92 % 0 mm 0.0 W/m2 CLR
03:15 -7.6 °C -8.4 °C 34462.7 hPa SW 35.7 km/h 35.7 km/h 91 % 0 mm 0.0 W/m2 CLR
03:20 -7.6 °C -8.5 °C 34462.7 hPa SSW 32.8 km/h 32.8 km/h 90 % 0 mm 0.0 W/m2 CLR
03:25 -7.6 °C -8.6 °C 34462.7 hPa WSW 32.8 km/h 32.8 km/h 89 % 0 mm 0.0 W/m2 CLR
03:30 -7.6 °C -8.6 °C 34462.7 hPa SSW 25.9 km/h 25.9 km/h 89 % 0 mm 0.0 W/m2 CLR
03:35 -7.6 °C -8.6 °C 34462.7 hPa SW 17.9 km/h 17.9 km/h 89 % 0 mm 0.0 W/m2 CLR
03:41 -7.6 °C -8.6 °C 34462.7 hPa SW 26.9 km/h 26.9 km/h 89 % 0 mm 0.0 W/m2 CLR
03:46 -7.6 °C -8.7 °C 34462.7 hPa SW 23.8 km/h 23.8 km/h 88 % 0 mm 0.0 W/m2 CLR
03:51 -7.6 °C -8.7 °C 34462.7 hPa SSW 26.9 km/h 26.9 km/h 88 % 0 mm 0.0 W/m2 CLR
03:56 -7.9 °C -9 °C 34462.7 hPa SSW 29.8 km/h 29.8 km/h 88 % 0 mm 0.0 W/m2 CLR
04:01 -7.9 °C -9 °C 34462.7 hPa SW 29.8 km/h 29.8 km/h 88 % 0 mm 0.0 W/m2 CLR
04:06 -7.9 °C -9 °C 34452.6 hPa SW 23.8 km/h 23.8 km/h 88 % 0 mm 0.0 W/m2 CLR
04:11 -7.9 °C -9 °C 34462.7 hPa SW 26.9 km/h 26.9 km/h 88 % 0 mm 0.0 W/m2 CLR
04:16 -7.9 °C -9 °C 34462.7 hPa SW 26.9 km/h 26.9 km/h 88 % 0 mm 0.0 W/m2 CLR
04:21 -8.2 °C -9.3 °C 34462.7 hPa SSW 20.9 km/h 20.9 km/h 88 % 0 mm 0.0 W/m2 CLR
04:26 -8.2 °C -9.3 °C 34476.3 hPa SSW 26.9 km/h 26.9 km/h 88 % 0 mm 0.0 W/m2 CLR
04:31 -8.2 °C -9.3 °C 34476.3 hPa SSW 26.9 km/h 26.9 km/h 88 % 0 mm 0.0 W/m2 CLR
04:36 -8.2 °C -9.3 °C 34476.3 hPa SSW 20.9 km/h 20.9 km/h 88 % 0 mm 0.0 W/m2 CLR
04:38 -8.2 °C -9.3 °C 34476.3 hPa South 23.8 km/h 23.8 km/h 88 % 0 mm 0.0 W/m2 CLR
04:43 -8.2 °C -9.3 °C 34476.3 hPa SSW 15.6 km/h 15.6 km/h 88 % 0 mm 0.0 W/m2 CLR
04:48 -8.2 °C -9.3 °C 34476.3 hPa SW 23.8 km/h 23.8 km/h 88 % 0 mm 0.0 W/m2 CLR
04:53 -8.2 °C -9.4 °C 34476.3 hPa SSW 26.9 km/h 26.9 km/h 87 % 0 mm 0.0 W/m2 CLR
04:58 -8.2 °C -9.4 °C 34476.3 hPa SSW 26.9 km/h 26.9 km/h 87 % 0 mm 0.0 W/m2 CLR
05:03 -7.9 °C -9.1 °C 34486.4 hPa SW 20.9 km/h 20.9 km/h 87 % 0 mm 0.0 W/m2 CLR
05:08 -8.2 °C -9.4 °C 34486.4 hPa SSW 26.9 km/h 26.9 km/h 87 % 0 mm 0.0 W/m2 CLR
05:13 -7.9 °C -9.1 °C 34486.4 hPa SW 15 km/h 15 km/h 87 % 0 mm 0.0 W/m2 CLR
05:18 -8.2 °C -9.4 °C 34486.4 hPa SSW 23.8 km/h 23.8 km/h 87 % 0 mm 0.0 W/m2 CLR
05:22 -8.2 °C -9.4 °C 34486.4 hPa SSW 18.2 km/h 18.2 km/h 87 % 0 mm 0.0 W/m2 CLR
05:23 -8.2 °C -9.4 °C 34486.4 hPa SW 17.9 km/h 17.9 km/h 87 % 0 mm 0.0 W/m2 CLR
05:28 -8.2 °C -9.4 °C 34486.4 hPa SW 25.9 km/h 25.9 km/h 87 % 0 mm 0.0 W/m2 CLR
05:33 -8.2 °C -9.6 °C 34486.4 hPa SSW 32.8 km/h 32.8 km/h 86 % 0 mm 0.0 W/m2 CLR
05:38 -8.2 °C -9.6 °C 34486.4 hPa SSW 17.9 km/h 17.9 km/h 86 % 0 mm 0.0 W/m2 CLR
05:43 -8.2 °C -9.6 °C 34496.6 hPa SW 17.9 km/h 17.9 km/h 86 % 0 mm 0.0 W/m2 CLR
05:48 -8.2 °C -9.6 °C 34486.4 hPa SW 15 km/h 15 km/h 86 % 0 mm 0.0 W/m2 CLR
05:53 -8.2 °C -9.6 °C 34486.4 hPa SSW 23.8 km/h 23.8 km/h 86 % 0 mm 0.0 W/m2 CLR
05:58 -8.2 °C -9.6 °C 34486.4 hPa SSW 26.9 km/h 26.9 km/h 86 % 0 mm 0.0 W/m2 CLR
06:03 -8.2 °C -9.6 °C 34496.6 hPa SW 18.2 km/h 18.2 km/h 86 % 0 mm 0.0 W/m2 CLR
06:08 -8.2 °C -9.6 °C 34496.6 hPa SSW 11.9 km/h 11.9 km/h 86 % 0 mm 0.0 W/m2 CLR
06:13 -8.2 °C -9.6 °C 34496.6 hPa SSW 20.9 km/h 20.9 km/h 86 % 0 mm 0.0 W/m2 CLR
06:18 -8.2 °C -9.6 °C 34496.6 hPa SSW 17.9 km/h 17.9 km/h 86 % 0 mm 0.0 W/m2 CLR
06:23 -8.2 °C -9.6 °C 34496.6 hPa SW 23.8 km/h 23.8 km/h 86 % 0 mm 0.0 W/m2 CLR
06:28 -8.2 °C -9.6 °C 34496.6 hPa SW 23.8 km/h 23.8 km/h 86 % 0 mm 0.0 W/m2 CLR
06:33 -8.2 °C -9.6 °C 34510.1 hPa SSW 29.8 km/h 29.8 km/h 85 % 0 mm 0.0 W/m2 CLR
06:38 -8.2 °C -9.6 °C 34510.1 hPa SSW 20.8 km/h 20.8 km/h 85 % 0 mm 0.0 W/m2 CLR
06:43 -8.2 °C -9.6 °C 34510.1 hPa SSW 26.9 km/h 26.9 km/h 85 % 0 mm 0.0 W/m2 CLR
06:48 -8.2 °C -9.6 °C 34510.1 hPa SW 31.1 km/h 31.1 km/h 85 % 0 mm 0.0 W/m2 CLR
06:53 -8.2 °C -9.6 °C 34510.1 hPa SSW 18.2 km/h 18.2 km/h 85 % 0 mm 0.0 W/m2 CLR
06:58 -8.2 °C -9.6 °C 34510.1 hPa SW 20.9 km/h 20.9 km/h 85 % 0 mm 0.0 W/m2 CLR
07:03 -8.2 °C -9.6 °C 34520.3 hPa SSW 26.9 km/h 26.9 km/h 85 % 0 mm 0.0 W/m2 CLR
07:09 -8.2 °C -9.6 °C 34520.3 hPa SSW 35.7 km/h 35.7 km/h 85 % 0 mm 0.0 W/m2 CLR
07:14 -8.2 °C -9.7 °C 34520.3 hPa SSW 35.7 km/h 35.7 km/h 84 % 0 mm 0.0 W/m2 CLR
07:19 -8.2 °C -9.7 °C 34520.3 hPa SSW 41.4 km/h 41.4 km/h 84 % 0 mm 0.0 W/m2 OVC
07:24 -8.2 °C -9.7 °C 34520.3 hPa SSW 32.8 km/h 32.8 km/h 84 % 0 mm 0.0 W/m2 OVC
07:29 -8.2 °C -9.7 °C 34520.3 hPa SSW 29.8 km/h 29.8 km/h 84 % 0 mm 0.0 W/m2 OVC
07:34 -8.2 °C -9.7 °C 34533.8 hPa SSW 29.8 km/h 29.8 km/h 84 % 0 mm 0.0 W/m2 OVC
07:39 -8.5 °C -10.1 °C 34533.8 hPa SW 17.9 km/h 17.9 km/h 84 % 0 mm 0.0 W/m2 OVC
07:44 -8.5 °C -10.1 °C 34533.8 hPa SW 17.9 km/h 17.9 km/h 84 % 0 mm 5.0 W/m2 OVC
07:49 -8.5 °C -10.1 °C 34533.8 hPa SSW 26.9 km/h 26.9 km/h 84 % 0 mm 7.0 W/m2 BKN
07:54 -8.5 °C -10.1 °C 34533.8 hPa Calm     84 % 0 mm 11.0 W/m2 BKN
07:59 -8.5 °C -10.1 °C 34533.8 hPa Calm     84 % 0 mm 12.0 W/m2 BKN
08:04 -8.5 °C -10.1 °C 34533.8 hPa Calm     84 % 0 mm 12.0 W/m2 BKN
08:09 -8.5 °C -10.1 °C 34533.8 hPa Calm     84 % 0 mm 16.0 W/m2 BKN
08:14 -8.5 °C -9.9 °C 34533.8 hPa Calm     85 % 0 mm 18.0 W/m2 BKN
08:19 -8.5 °C -9.9 °C 34544 hPa Calm     85 % 0 mm 21.0 W/m2 BKN
08:24 -8.5 °C -9.8 °C 34544 hPa Calm     86 % 0 mm 26.0 W/m2 BKN
08:29 -8.5 °C -9.9 °C 34544 hPa South 18.2 km/h 18.2 km/h 85 % 0 mm 33.0 W/m2 BKN
08:34 -8.5 °C -9.9 °C 34544 hPa SSW 11.9 km/h 11.9 km/h 85 % 0 mm 39.0 W/m2 BKN
08:39 -8.5 °C -9.9 °C 34544 hPa SW 18.2 km/h 18.2 km/h 85 % 0 mm 49.0 W/m2 BKN
08:44 -8.5 °C -10.1 °C 34544 hPa WSW 29.8 km/h 29.8 km/h 84 % 0 mm 63.0 W/m2 SCT
08:49 -8.5 °C -10.1 °C 34554.1 hPa SSW 20.9 km/h 20.9 km/h 83 % 0 mm 72.0 W/m2 SCT
08:54 -8.5 °C -10.1 °C 34554.1 hPa SSW 18.2 km/h 18.2 km/h 84 % 0 mm 79.0 W/m2 FEW
08:59 -8.5 °C -10.1 °C 34554.1 hPa SSW 29.8 km/h 29.8 km/h 83 % 0 mm 83.0 W/m2 FEW
09:04 -8.5 °C -10.1 °C 34554.1 hPa SW 41.4 km/h 41.4 km/h 83 % 0 mm 93.0 W/m2 FEW
09:09 -8.5 °C -10.1 °C 34567.7 hPa WSW 25.9 km/h 25.9 km/h 83 % 0 mm 97.0 W/m2 CLR
09:14 -8.5 °C -10.1 °C 34567.7 hPa SW 17.9 km/h 17.9 km/h 83 % 0 mm 97.0 W/m2 CLR
09:19 -8.5 °C -10.1 °C 34567.7 hPa SSW 25.9 km/h 25.9 km/h 83 % 0 mm 97.0 W/m2 CLR
09:24 -8.5 °C -10.1 °C 34567.7 hPa SSW 18.2 km/h 18.2 km/h 83 % 0 mm 102.0 W/m2 CLR
09:29 -8.5 °C -10.1 °C 34567.7 hPa WSW 29.8 km/h 29.8 km/h 83 % 0 mm 111.0 W/m2 CLR
09:34 -8.5 °C -10.1 °C 34567.7 hPa SW 15 km/h 15 km/h 83 % 0 mm 118.0 W/m2 CLR
09:39 -8.5 °C -10.1 °C 34567.7 hPa SSW 23.8 km/h 23.8 km/h 83 % 0 mm 139.0 W/m2 CLR
09:44 -8.2 °C -9.8 °C 34567.7 hPa SW 17.9 km/h 17.9 km/h 83 % 0 mm 174.0 W/m2 CLR
09:49 -8.2 °C -9.8 °C 34567.7 hPa SSW 9 km/h 9 km/h 83 % 0 mm 183.0 W/m2 CLR
09:54 -8.2 °C -9.9 °C 34577.8 hPa SSW 18.2 km/h 18.2 km/h 82 % 0 mm 202.0 W/m2 CLR
09:59 -8.2 °C -10.1 °C 34577.8 hPa SSW 29.8 km/h 29.8 km/h 81 % 0 mm 251.0 W/m2 CLR
10:04 -7.9 °C -9.6 °C 34577.8 hPa South 29.8 km/h 29.8 km/h 83 % 0 mm 584.0 W/m2 CLR
10:10 -7.6 °C -9.6 °C 34577.8 hPa SSW 44.7 km/h 44.7 km/h 80 % 0 mm 301.0 W/m2 CLR
10:15 -7.6 °C -9.6 °C 34577.8 hPa SSW 29.8 km/h 29.8 km/h 80 % 0 mm 369.0 W/m2 CLR
10:20 -7.6 °C -9.6 °C 34591.4 hPa WSW 32.8 km/h 32.8 km/h 80 % 0 mm 332.0 W/m2 CLR
10:25 -7.3 °C -9.3 °C 34591.4 hPa SW 41.7 km/h 41.7 km/h 79 % 0 mm 371.0 W/m2 CLR
10:30 -7.3 °C -9.2 °C 34591.4 hPa SW 36.2 km/h 36.2 km/h 80 % 0 mm 334.0 W/m2 CLR
10:35 -7.6 °C -9.7 °C 34591.4 hPa SSW 44.7 km/h 44.7 km/h 79 % 7.62 mm 360.0 W/m2 RA
10:40 -7.6 °C -9.8 °C 34591.4 hPa SW 32.8 km/h 32.8 km/h 78 % 7.62 mm 352.0 W/m2 CLR
10:45 -7.6 °C -9.8 °C 34591.4 hPa SSW 38.8 km/h 38.8 km/h 78 % 7.62 mm 323.0 W/m2 CLR
10:50 -7.3 °C -9.6 °C 34591.4 hPa SSW 38.8 km/h 38.8 km/h 77 % 7.62 mm 531.0 W/m2 CLR
10:55 -7.3 °C -9.6 °C 34591.4 hPa SSW 35.7 km/h 35.7 km/h 77 % 7.62 mm 547.0 W/m2 CLR
11:00 -7 °C -9.3 °C 34591.4 hPa SSE 38.8 km/h 38.8 km/h 77 % 7.62 mm 647.0 W/m2 CLR
11:05 -7 °C -9.1 °C 34591.4 hPa SW 18.2 km/h 18.2 km/h 79 % 7.62 mm 735.0 W/m2 CLR
11:10 -7 °C -9.3 °C 34591.4 hPa SW 38.8 km/h 38.8 km/h 77 % 7.62 mm 752.0 W/m2 CLR
11:15 -7 °C -9.3 °C 34591.4 hPa WSW 35.7 km/h 35.7 km/h 77 % 7.62 mm 810.0 W/m2 CLR
11:16 -6.7 °C -9 °C 34591.4 hPa SW 32.8 km/h 32.8 km/h 77 % 7.62 mm 810.0 W/m2 CLR
11:21 -6.7 °C -9.1 °C 34591.4 hPa SW 41.4 km/h 41.4 km/h 76 % 7.62 mm 483.0 W/m2 CLR
11:26 -7 °C -9.4 °C 34591.4 hPa SW 32.8 km/h 32.8 km/h 76 % 7.62 mm 679.0 W/m2 CLR
11:31 -6.7 °C -9.1 °C 34591.4 hPa SW 32.8 km/h 32.8 km/h 76 % 0 mm 722.0 W/m2 CLR
11:36 -6.7 °C -9.2 °C 34591.4 hPa SW 38.8 km/h 38.8 km/h 75 % 0 mm 694.0 W/m2 CLR
11:41 -6.3 °C -8.9 °C 34591.4 hPa SSW 38.8 km/h 38.8 km/h 75 % 0 mm 694.0 W/m2 CLR
11:46 -6.7 °C -9.3 °C 34591.4 hPa SSW 31.1 km/h 31.1 km/h 74 % 0 mm 708.0 W/m2 CLR
11:51 -6.3 °C -9 °C 34591.4 hPa SW 29.8 km/h 29.8 km/h 74 % 0 mm 744.0 W/m2 CLR
11:56 -6.1 °C -8.9 °C 34591.4 hPa South 35.7 km/h 35.7 km/h 72 % 0 mm 703.0 W/m2 CLR
12:01 -6.3 °C -9.1 °C 34591.4 hPa WSW 23.3 km/h 23.3 km/h 73 % 0 mm 701.0 W/m2 CLR
12:06 -6.1 °C -8.9 °C 34591.4 hPa SE 20.9 km/h 20.9 km/h 72 % 0 mm 719.0 W/m2 CLR
12:11 -6.1 °C -9.1 °C 34591.4 hPa SSW 9 km/h   71 % 0 mm 749.0 W/m2 CLR
12:16 -5.7 °C -8.9 °C 34577.8 hPa SSW 31.1 km/h 31.1 km/h 70 % 0 mm 737.0 W/m2 CLR
12:21 -5.7 °C -8.8 °C 34577.8 hPa SW 15 km/h 15 km/h 71 % 0 mm 744.0 W/m2 CLR
12:26 -5.7 °C -8.8 °C 34577.8 hPa WSW 32.8 km/h 32.8 km/h 71 % 0 mm 751.0 W/m2 CLR
12:31 -5.7 °C -8.8 °C 34577.8 hPa SW 29.8 km/h 29.8 km/h 71 % 0 mm 758.0 W/m2 CLR
12:36 -5.7 °C -9.2 °C 34577.8 hPa South 23.8 km/h 23.8 km/h 68 % 0 mm 763.0 W/m2 CLR
12:41 -5.4 °C -8.6 °C 34577.8 hPa SSW 41.7 km/h 41.7 km/h 70 % 0 mm 768.0 W/m2 CLR
12:46 -5.4 °C -8.7 °C 34577.8 hPa SSW 12.9 km/h 12.9 km/h 69 % 0 mm 770.0 W/m2 CLR
12:51 -5.4 °C -8.8 °C 34577.8 hPa SSW 29.8 km/h 29.8 km/h 68 % 0 mm 782.0 W/m2 CLR
12:56 -5.4 °C -8.8 °C 34577.8 hPa SW 32.8 km/h 32.8 km/h 68 % 0 mm 789.0 W/m2 CLR
13:01 -5.1 °C -8.4 °C 34577.8 hPa SW 32.8 km/h 32.8 km/h 69 % 0 mm 802.0 W/m2 CLR
13:06 -5.1 °C -8.6 °C 34567.7 hPa Calm     68 % 0 mm 796.0 W/m2 CLR
13:11 -5.1 °C -8.8 °C 34567.7 hPa SW 29.8 km/h 29.8 km/h 66 % 0 mm 867.0 W/m2 CLR
13:16 -5.4 °C -9.3 °C 34567.7 hPa SW 29.8 km/h 29.8 km/h 65 % 0 mm 816.0 W/m2 CLR
13:21 -5.4 °C -9 °C 34567.7 hPa SW 31.1 km/h 31.1 km/h 67 % 0 mm 817.0 W/m2 CLR
13:26 -5.1 °C -8.8 °C 34567.7 hPa WSW 35.7 km/h 35.7 km/h 66 % 0 mm 853.0 W/m2 CLR
13:31 -5.4 °C -9.3 °C 34567.7 hPa South 32.8 km/h 32.8 km/h 65 % 0 mm 847.0 W/m2 CLR
13:37 -5.1 °C -8.8 °C 34554.1 hPa SW 32.8 km/h 32.8 km/h 66 % 0 mm 879.0 W/m2 CLR
13:42 -5.4 °C -9.1 °C 34567.7 hPa South 38.8 km/h 38.8 km/h 66 % 0 mm 951.0 W/m2 CLR
13:47 -4.8 °C -8.7 °C 34567.7 hPa WNW 32.8 km/h 32.8 km/h 65 % 0 mm 882.0 W/m2 CLR
13:52 -4.8 °C -9.1 °C 34567.7 hPa West 17.9 km/h 17.9 km/h 62 % 0 mm 990.0 W/m2 CLR
13:57 -5.1 °C -9.2 °C 34567.7 hPa SSW 17.9 km/h 17.9 km/h 63 % 0 mm 290.0 W/m2 CLR
14:02 -5.4 °C -9.6 °C 34567.7 hPa WSW 17.9 km/h 17.9 km/h 63 % 0 mm 900.0 W/m2 CLR
14:07 -5.1 °C -9.1 °C 34567.7 hPa SW 20.9 km/h 20.9 km/h 64 % 0 mm 863.0 W/m2 CLR
14:12 -4.8 °C -8.9 °C 34567.7 hPa West 9 km/h 9 km/h 63 % 0 mm 893.0 W/m2 CLR
14:17 -4.8 °C -9.2 °C 34567.7 hPa South 11.9 km/h 11.9 km/h 61 % 0 mm 872.0 W/m2 CLR
14:22 -4.8 °C -9.1 °C 34554.1 hPa SW 9 km/h 9 km/h 62 % 0 mm 830.0 W/m2 CLR
14:27 -4.5 °C -8.7 °C 34554.1 hPa WSW 20.9 km/h 20.9 km/h 63 % 0 mm 840.0 W/m2 CLR
14:32 -4.8 °C -9.2 °C 34554.1 hPa West 38.8 km/h 38.8 km/h 61 % 0 mm 840.0 W/m2 CLR
14:37 -4.8 °C -9.8 °C 34554.1 hPa SW 15 km/h 15 km/h 57 % 0 mm 819.0 W/m2 CLR
14:42 -4.5 °C -9.2 °C 34554.1 hPa SW 15 km/h 15 km/h 59 % 0 mm 812.0 W/m2 CLR
14:47 -4.8 °C -9.4 °C 34554.1 hPa Calm     60 % 0 mm 810.0 W/m2 CLR
14:52 -4.5 °C -9.2 °C 34554.1 hPa SW 11.9 km/h 11.9 km/h 59 % 0 mm 803.0 W/m2 CLR
14:57 -4.5 °C -9.6 °C 34554.1 hPa West 17.9 km/h 17.9 km/h 57 % 0 mm 800.0 W/m2 CLR
15:02 -4.5 °C -9.6 °C 34554.1 hPa SW 15 km/h 15 km/h 57 % 0 mm 793.0 W/m2 CLR
15:07 -4.5 °C -9.6 °C 34554.1 hPa SSW 3.1 km/h   57 % 0 mm 788.0 W/m2 CLR
15:12 -4.2 °C -9.4 °C 34554.1 hPa Calm     56 % 0 mm 784.0 W/m2 CLR
15:17 -4.5 °C -9.8 °C 34544 hPa West 29.8 km/h 29.8 km/h 55 % 0 mm 780.0 W/m2 CLR
15:22 -4.5 °C -9.8 °C 34544 hPa SW 18.2 km/h 18.2 km/h 55 % 0 mm 773.0 W/m2 CLR
15:27 -4.2 °C -9.7 °C 34533.8 hPa WNW 26.9 km/h 26.9 km/h 54 % 0 mm 770.0 W/m2 CLR
15:32 -4.2 °C -9.6 °C 34533.8 hPa West 9 km/h 9 km/h 55 % 0 mm 761.0 W/m2 CLR
15:37 -4.2 °C -9.9 °C 34533.8 hPa Calm     53 % 0 mm 756.0 W/m2 CLR
15:42 -4.5 °C -9.7 °C 34533.8 hPa SSW 11.9 km/h 11.9 km/h 56 % 0 mm 744.0 W/m2 CLR
15:47 -4.2 °C -9.7 °C 34533.8 hPa SSW 20.9 km/h 20.9 km/h 54 % 0 mm 737.0 W/m2 CLR
15:52 -4.2 °C -10.1 °C 34533.8 hPa WNW 11.9 km/h   52 % 0 mm 731.0 W/m2 CLR
15:57 -4.2 °C -9.7 °C 34520.3 hPa WSW 29.8 km/h 29.8 km/h 54 % 0 mm 728.0 W/m2 CLR
16:02 -4.2 °C -9.7 °C 34520.3 hPa SSW 17.9 km/h 17.9 km/h 54 % 0 mm 737.0 W/m2 CLR
16:07 -3.9 °C -9.8 °C 34520.3 hPa Calm     52 % 0 mm 777.0 W/m2 CLR
16:12 -3.9 °C -9.8 °C 34520.3 hPa Calm     52 % 0 mm 749.0 W/m2 CLR
16:17 -3.9 °C -9.6 °C 34510.1 hPa West 9 km/h 9 km/h 53 % 0 mm 700.0 W/m2 CLR
16:22 -3.9 °C -9.8 °C 34520.3 hPa West 20.9 km/h 20.9 km/h 52 % 0 mm 670.0 W/m2 CLR
16:23 -3.9 °C -9.8 °C 34510.1 hPa West 20.9 km/h 20.9 km/h 52 % 0 mm 670.0 W/m2 CLR
16:28 -3.9 °C -9.6 °C 34510.1 hPa SW 23.8 km/h 23.8 km/h 53 % 0 mm 563.0 W/m2 CLR
16:33 -3.6 °C -9.1 °C 34510.1 hPa SW 29.8 km/h 29.8 km/h 54 % 0 mm 679.0 W/m2 CLR
16:38 -3.9 °C -9.6 °C 34510.1 hPa West 26.9 km/h 26.9 km/h 53 % 0 mm 735.0 W/m2 CLR
16:43 -3.9 °C -9.6 °C 34510.1 hPa WSW 23.8 km/h 23.8 km/h 53 % 0 mm 269.0 W/m2 CLR
16:48 -4.5 °C -10.2 °C 34510.1 hPa SSW 23.8 km/h 23.8 km/h 53 % 0 mm 302.0 W/m2 CLR
16:53 -4.2 °C -10.2 °C 34510.1 hPa WSW 17.9 km/h 17.9 km/h 51 % 0 mm 735.0 W/m2 CLR
16:58 -4.2 °C -10.2 °C 34510.1 hPa Calm     51 % 0 mm 629.0 W/m2 CLR
17:03 -3.9 °C -10.1 °C 34510.1 hPa Calm     50 % 0 mm 645.0 W/m2 CLR
17:08 -3.9 °C -10.1 °C 34510.1 hPa WSW 12.9 km/h 12.9 km/h 50 % 0 mm 533.0 W/m2 CLR
17:13 -3.9 °C -10.1 °C 34510.1 hPa West 15 km/h 15 km/h 50 % 0 mm 601.0 W/m2 CLR
17:18 -3.9 °C -10.1 °C 34510.1 hPa West 23.8 km/h 23.8 km/h 50 % 0 mm 552.0 W/m2 CLR
17:23 -3.6 °C -9.6 °C 34510.1 hPa WSW 15.6 km/h 15.6 km/h 51 % 0 mm 540.0 W/m2 CLR
17:28 -3.6 °C -9.6 °C 34510.1 hPa West 26.9 km/h 26.9 km/h 51 % 0 mm 527.0 W/m2 CLR
17:33 -3.9 °C -10.1 °C 34510.1 hPa WSW 9 km/h 9 km/h 50 % 0 mm 508.0 W/m2 CLR
17:38 -3.9 °C -10.2 °C 34510.1 hPa WNW 23.8 km/h 23.8 km/h 49 % 0 mm 490.0 W/m2 CLR
17:43 -3.9 °C -9.9 °C 34510.1 hPa West 17.9 km/h 17.9 km/h 51 % 0 mm 478.0 W/m2 CLR
17:48 -4.2 °C -10.2 °C 34510.1 hPa West 20.9 km/h 20.9 km/h 51 % 0 mm 468.0 W/m2 CLR
17:53 -4.2 °C -10.4 °C 34496.6 hPa Calm     50 % 0 mm 455.0 W/m2 CLR
17:58 -4.2 °C -10.2 °C 34496.6 hPa NNW 6 km/h 6 km/h 51 % 0 mm 425.0 W/m2 CLR
18:03 -4.2 °C -10.2 °C 34496.6 hPa West 9 km/h 9 km/h 51 % 0 mm 339.0 W/m2 CLR
18:08 -4.2 °C -10.1 °C 34496.6 hPa SW 20.9 km/h 20.9 km/h 52 % 0 mm 397.0 W/m2 CLR
18:13 -4.2 °C -10.4 °C 34496.6 hPa West 23.8 km/h 23.8 km/h 50 % 0 mm 281.0 W/m2 CLR
18:18 -4.2 °C -10.1 °C 34496.6 hPa West 26.9 km/h 26.9 km/h 52 % 0 mm 209.0 W/m2 CLR
18:23 -4.2 °C -10.1 °C 34496.6 hPa WSW 20.9 km/h 20.9 km/h 52 % 0 mm 130.0 W/m2 CLR
18:28 -4.5 °C -10.2 °C 34496.6 hPa Calm     53 % 0 mm 144.0 W/m2 CLR
18:33 -4.5 °C -10 °C 34496.6 hPa Calm     54 % 0 mm 399.0 W/m2 CLR
18:38 -4.5 °C -10.3 °C 34496.6 hPa West 23.8 km/h 23.8 km/h 52 % 0 mm 387.0 W/m2 CLR
18:43 -4.2 °C -10.2 °C 34496.6 hPa SW 6 km/h   51 % 0 mm 302.0 W/m2 CLR
18:48 -4.5 °C -10.5 °C 34510.1 hPa Calm     51 % 0 mm 114.0 W/m2 CLR
18:53 -4.5 °C -10.2 °C 34510.1 hPa SW 15 km/h 15 km/h 53 % 0 mm 213.0 W/m2 CLR
18:58 -4.5 °C -10.3 °C 34510.1 hPa Calm     52 % 0 mm 149.0 W/m2 CLR
19:03 -4.5 °C -10.2 °C 34510.1 hPa Calm     53 % 0 mm 128.0 W/m2 CLR
19:08 -4.8 °C -10.6 °C 34510.1 hPa WSW 10.3 km/h 10.3 km/h 52 % 0 mm 130.0 W/m2 CLR
19:13 -4.8 °C -10.4 °C 34510.1 hPa SW 15 km/h 15 km/h 53 % 0 mm 213.0 W/m2 CLR
19:18 -4.5 °C -10.2 °C 34510.1 hPa SSW 20.9 km/h 20.9 km/h 53 % 0 mm 214.0 W/m2 CLR
19:23 -4.5 °C -10.3 °C 34510.1 hPa SSW 15 km/h 15 km/h 52 % 0 mm 116.0 W/m2 CLR
19:28 -4.5 °C -10.3 °C 34510.1 hPa SW 15 km/h 15 km/h 52 % 0 mm 114.0 W/m2 CLR
19:33 -4.5 °C -10.3 °C 34520.3 hPa WSW 23.8 km/h 23.8 km/h 52 % 0 mm 120.0 W/m2 CLR
19:38 -4.8 °C -10.4 °C 34520.3 hPa WSW 17.9 km/h 17.9 km/h 53 % 0 mm 109.0 W/m2 CLR
19:43 -4.8 °C -10.4 °C 34520.3 hPa WSW 15.6 km/h 15.6 km/h 53 % 0 mm 102.0 W/m2 CLR
19:48 -4.8 °C -10.4 °C 34520.3 hPa Calm     53 % 0 mm 70.0 W/m2 FEW
19:53 -4.8 °C -10.3 °C 34533.8 hPa WSW 11.9 km/h 11.9 km/h 54 % 0 mm 72.0 W/m2 FEW
19:58 -5.1 °C -10.7 °C 34533.8 hPa WSW 6 km/h   53 % 0 mm 56.0 W/m2 SCT
20:03 -5.1 °C -10.4 °C 34533.8 hPa Calm     55 % 0 mm 42.0 W/m2 BKN
20:08 -5.1 °C -10.4 °C 34533.8 hPa SW 5.1 km/h 5.1 km/h 55 % 0 mm 32.0 W/m2 BKN
20:13 -5.4 °C -10.6 °C 34533.8 hPa Calm     56 % 0 mm 26.0 W/m2 BKN
20:18 -5.4 °C -10.6 °C 34533.8 hPa Calm     56 % 0 mm 19.0 W/m2 BKN
20:23 -5.4 °C -10.4 °C 34544 hPa Calm     57 % 0 mm 12.0 W/m2 BKN
20:28 -5.7 °C -10.7 °C 34544 hPa Calm     57 % 0 mm 9.0 W/m2 BKN
20:33 -5.7 °C -10.4 °C 34544 hPa Calm     59 % 0 mm 0.0 W/m2 OVC
20:38 -6.1 °C -10.8 °C 34544 hPa Calm     58 % 0 mm 0.0 W/m2 OVC
20:43 -6.3 °C -11.1 °C 34544 hPa Calm     58 % 0 mm 0.0 W/m2 CLR
20:48 -6.7 °C -11.3 °C 34544 hPa Calm     59 % 0 mm 0.0 W/m2 CLR
20:53 -7 °C -11.2 °C 34544 hPa Calm     62 % 0 mm 0.0 W/m2 CLR
20:58 -7 °C -10.7 °C 34544 hPa Calm     65 % 0 mm 0.0 W/m2 CLR
21:03 -7.3 °C -10.9 °C 34544 hPa Calm     66 % 0 mm 0.0 W/m2 CLR
21:08 -7.3 °C -10.9 °C 34544 hPa Calm     66 % 0 mm 0.0 W/m2 CLR
21:13 -7.3 °C -10.9 °C 34544 hPa Calm     66 % 0 mm 0.0 W/m2 CLR
21:18 -7.3 °C -11 °C 34544 hPa Calm     65 % 0 mm 0.0 W/m2 CLR
21:23 -7.3 °C -11 °C 34544 hPa Calm     65 % 0 mm 0.0 W/m2 CLR
21:28 -7.3 °C -10.8 °C 34554.1 hPa Calm     67 % 0 mm 0.0 W/m2 CLR
21:33 -7.3 °C -11 °C 34554.1 hPa Calm     65 % 0 mm 0.0 W/m2 CLR
21:38 -7.6 °C -11.4 °C 34554.1 hPa Calm     64 % 0 mm 0.0 W/m2 CLR
21:43 -7.6 °C -11.7 °C 34554.1 hPa Calm     62 % 0 mm 0.0 W/m2 CLR
21:48 -7.9 °C -12 °C 34554.1 hPa Calm     62 % 0 mm 0.0 W/m2 CLR
21:53 -7.9 °C -12 °C 34567.7 hPa Calm     62 % 0 mm 0.0 W/m2 CLR
21:58 -8.2 °C -12.3 °C 34567.7 hPa Calm     62 % 0 mm 0.0 W/m2 CLR
22:03 -8.2 °C -12.3 °C 34567.7 hPa Calm     62 % 0 mm 0.0 W/m2 CLR
22:08 -8.2 °C -12.2 °C 34567.7 hPa Calm     63 % 0 mm 0.0 W/m2 CLR
22:13 -8.2 °C -12.2 °C 34567.7 hPa Calm     63 % 0 mm 0.0 W/m2 CLR
22:18 -8.5 °C -12.2 °C 34567.7 hPa Calm     65 % 0 mm 0.0 W/m2 CLR
22:23 -8.5 °C -12.1 °C 34567.7 hPa Calm     66 % 0 mm 0.0 W/m2 CLR
22:28 -8.5 °C -11.9 °C 34567.7 hPa Calm     67 % 0 mm 0.0 W/m2 CLR
22:33 -8.8 °C -12.2 °C 34577.8 hPa Calm     67 % 0 mm 0.0 W/m2 CLR
22:38 -8.8 °C -12.1 °C 34577.8 hPa Calm     68 % 0 mm 0.0 W/m2 CLR
22:43 -8.8 °C -12.2 °C 34577.8 hPa Calm     67 % 0 mm 0.0 W/m2 CLR
22:49 -8.8 °C -12.3 °C 34577.8 hPa Calm     66 % 0 mm 0.0 W/m2 CLR
22:54 -8.8 °C -11.6 °C 34577.8 hPa Calm     72 % 0 mm 0.0 W/m2 CLR
22:59 -9.1 °C -11.8 °C 34577.8 hPa Calm     73 % 0 mm 0.0 W/m2 CLR
23:04 -9.1 °C -12.3 °C 34577.8 hPa Calm     69 % 0 mm 0.0 W/m2 CLR
23:09 -9.1 °C -12.2 °C 34591.4 hPa Calm     70 % 0 mm 0.0 W/m2 CLR
23:14 -9.1 °C -12.3 °C 34591.4 hPa Calm     69 % 0 mm 0.0 W/m2 CLR
23:19 -9.1 °C -12.1 °C 34591.4 hPa Calm     71 % 0 mm 0.0 W/m2 CLR
23:24 -9.1 °C -11.9 °C 34591.4 hPa Calm     72 % 0 mm 0.0 W/m2 CLR
23:29 -9.1 °C -12.6 °C 34591.4 hPa Calm     67 % 0 mm 0.0 W/m2 CLR
23:34 -9.1 °C -12.7 °C 34591.4 hPa Calm     66 % 0 mm 0.0 W/m2 CLR
23:39 -9.1 °C -12.8 °C 34591.4 hPa Calm     65 % 0 mm 0.0 W/m2 CLR
23:44 -9.1 °C -12.7 °C 34591.4 hPa Calm     66 % 0 mm 0.0 W/m2 CLR
23:45 -9.1 °C -12.8 °C 34591.4 hPa Calm     65 % 0 mm 0.0 W/m2 CLR
23:49 -9.1 °C -12.8 °C 34591.4 hPa Calm     65 % 0 mm 0.0 W/m2 CLR
23:54 -9.1 °C -12.8 °C 34591.4 hPa SSW 7.7 km/h 7.7 km/h 65 % 0 mm 0.0 W/m2 CLR
23:59 -9.1 °C -12.9 °C 34601.5 hPa Calm     64 % 0 mm 0.0 W/m2 CLR
Lo Temps de Massalio
Compliments of Weather Underground - 1.25 mb